Pagrindinis puslapis
METAR-TAF:

METAR-TAF

Oro uostai :

Guymon, Oklahoma, Jungtinės Amerikos Valstijos

platuma: 36-40-54N, ilguma: 101-30-19W, Aukštis: 952 m

Dabartinis oras

Ataskaita buvo paskelbta 1 valandą ir 6 minutes, ne 03:53 UTC
Vėjas 8 kt iš Pietų
Temperatūra 27°C
Drėgmė 45%
Slėgis 1015 hPa
Matomumas: 16.1 km
Giedras dangus

METAR: KGUY 160353Z AUTO 19008KT 10SM CLR 27/14 A2996 RMK AO2 SLP087 T02720139

Laikas: 23:59 (04:59 UTC)

Prognozė

Ataskaita buvo paskelbta 5 valandos ir 37 minutes, ne 23:22 UTC
Prognozė galioja nuo 16 metu 00 UTC su 16 metu 24 UTC
Vėjas 13 kt iš Pietų
Matomumas: 10 km
Mažai debesys ne aukštis 25000 ft
Nuo 16 metu 0600 UTC
Vėjas 12 kt iš Šiaurės
Matomumas: 10 km
Išsisklaidę debesys ne aukštis 10000 ft
Nuo 16 metu 2000 UTC
Vėjas 15 kt iš Šiaurės/Šiaurės Rytų
Matomumas: 10 km
Su prošvaistėmis ne aukštis 10000 ft

TAF: KGUY 152322Z 1600/1624 18013KT P6SM FEW250 FM160600 35012KT P6SM SCT100 FM162000 03015KT P6SM BKN100

Orai ataskaitas ir orų prognozės (METAR, TAF).

turimą stotys yra geltonos ir raudonos taškus žemėlapyje.

Perkelti pele per norėdami pamatyti stoties vardą.

Tada spustelėkite, norėdami matyti oro stebėjimo ir prognozės.

Norėdami pakeisti žemėlapį: spustelėkite ant žalios mygtukų su juodo kryžiaus žemyn,; žalią mygtuką su brūkšneliu, jei norite nutolinti; arba žalių rodyklių gretimoms žemėlapius.


METAR-TAF: